Time;durP1;ratioP1;P1;durP2;ratioP2;P2;SDS_P1;SDS_P2;PMS_P1;PMS_P2;Temp;Humidity;BMP_temperature;BMP_pressure;BME280_temperature;BME280_humidity;BME280_pressure;Samples;Min_cycle;Max_cycle;Signal;HPM_P1;HPM_P2
2021/12/13 00:01:21;;;;;;;15.20;8.68;;;;;;;;;;5097836;27;20125;-52
2021/12/13 00:03:56;;;;;;;14.13;8.68;;;;;;;;;;5091122;28;20052;-51
2021/12/13 00:06:27;;;;;;;13.93;8.60;;;;;;;;;;5093662;28;20063;-54
2021/12/13 00:08:57;;;;;;;17.05;8.98;;;;;;;;;;5093987;28;20153;-54
2021/12/13 00:11:28;;;;;;;15.40;8.63;;;;;;;;;;5097111;27;20116;-54
2021/12/13 00:14:11;;;;;;;13.30;8.65;;;;;;;;;;5100147;28;20066;-50
2021/12/13 00:16:41;;;;;;;10.57;7.13;;;;;;;;;;5105027;27;20023;-50
2021/12/13 00:19:15;;;;;;;15.50;8.40;;;;;;;;;;5091256;28;20036;-54
2021/12/13 00:21:45;;;;;;;11.88;7.03;;;;;;;;;;5094692;27;20028;-55
2021/12/13 00:24:21;;;;;;;9.88;6.80;;;;;;;;;;5096903;28;20567;-53
2021/12/13 00:26:51;;;;;;;9.70;6.85;;;;;;;;;;5086426;28;20165;-52
2021/12/13 00:29:25;;;;;;;9.40;6.15;;;;;;;;;;5098039;27;20123;-54
2021/12/13 00:32:19;;;;;;;9.38;5.80;;;;;;;;;;5096490;27;20047;-51
2021/12/13 00:34:55;;;;;;;7.82;6.25;;;;;;;;;;5099410;28;20130;-51
2021/12/13 00:37:29;;;;;;;14.02;6.70;;;;;;;;;;5103150;27;20032;-48
2021/12/13 00:39:59;;;;;;;10.35;6.82;;;;;;;;;;5117005;27;20041;-52
2021/12/13 00:42:29;;;;;;;11.20;7.10;;;;;;;;;;5082628;28;20077;-51
2021/12/13 00:45:03;;;;;;;12.15;7.30;;;;;;;;;;5094842;28;20068;-55
2021/12/13 00:47:32;;;;;;;8.35;6.60;;;;;;;;;;5097540;28;20087;-54
2021/12/13 00:50:08;;;;;;;11.32;7.10;;;;;;;;;;5093953;28;20215;-54
2021/12/13 00:52:37;;;;;;;9.85;6.95;;;;;;;;;;5105324;27;20035;-53
2021/12/13 00:55:12;;;;;;;9.20;6.60;;;;;;;;;;5099311;28;20036;-53
2021/12/13 00:57:43;;;;;;;10.65;7.85;;;;;;;;;;5106894;27;20560;-55
2021/12/13 01:00:38;;;;;;;12.32;7.10;;;;;;;;;;5096091;27;20935;-52
2021/12/13 01:03:12;;;;;;;11.18;7.35;;;;;;;;;;5088853;28;20078;-53
2021/12/13 01:05:59;;;;;;;11.57;7.53;;;;;;;;;;5095549;28;20039;-49
2021/12/13 01:08:59;;;;;;;9.70;6.43;;;;;;;;;;5106527;27;20026;-51
2021/12/13 01:11:44;;;;;;;8.93;6.15;;;;;;;;;;5095350;28;20096;-53
2021/12/13 01:14:34;;;;;;;8.73;6.35;;;;;;;;;;5093172;28;20040;-54
2021/12/13 01:17:28;;;;;;;9.65;6.55;;;;;;;;;;5098065;28;20027;-53
2021/12/13 01:20:17;;;;;;;9.68;6.82;;;;;;;;;;5098893;28;20036;-49
2021/12/13 01:22:56;;;;;;;8.50;6.38;;;;;;;;;;5102742;27;20028;-52
2021/12/13 01:25:43;;;;;;;9.43;6.05;;;;;;;;;;5100692;28;20050;-54
2021/12/13 01:28:20;;;;;;;10.40;6.80;;;;;;;;;;5096084;28;20028;-52
2021/12/13 01:30:57;;;;;;;9.80;5.95;;;;;;;;;;5101197;28;20042;-55
2021/12/13 01:33:25;;;;;;;8.15;5.53;;;;;;;;;;5099636;27;20024;-54
2021/12/13 01:35:55;;;;;;;10.68;5.93;;;;;;;;;;5106027;27;20105;-54
2021/12/13 01:38:32;;;;;;;6.65;5.55;;;;;;;;;;5095425;28;20039;-55
2021/12/13 01:41:08;;;;;;;15.05;5.20;;;;;;;;;;5100093;28;20073;-53
2021/12/13 01:43:37;;;;;;;8.68;5.47;;;;;;;;;;5100619;28;20438;-55
2021/12/13 01:46:03;;;;;;;6.32;4.93;;;;;;;;;;5094600;28;20035;-55
2021/12/13 01:48:34;;;;;;;6.05;4.35;;;;;;;;;;5096359;28;20054;-54
2021/12/13 01:51:05;;;;;;;6.22;4.30;;;;;;;;;;5099853;27;20084;-55
2021/12/13 01:53:58;;;;;;;4.63;4.10;;;;;;;;;;5098590;28;20433;-55
2021/12/13 01:56:56;;;;;;;7.70;4.28;;;;;;;;;;5092818;28;20043;-53
2021/12/13 01:59:43;;;;;;;7.50;4.93;;;;;;;;;;5096467;28;20036;-55
2021/12/13 02:02:24;;;;;;;5.07;4.20;;;;;;;;;;5077965;28;20036;-55
2021/12/13 02:05:27;;;;;;;7.45;4.40;;;;;;;;;;5097290;28;20995;-54
2021/12/13 02:08:01;;;;;;;5.22;4.32;;;;;;;;;;5038004;28;21157;-53
2021/12/13 02:10:41;;;;;;;4.75;4.00;;;;;;;;;;5059947;28;20731;-53
2021/12/13 02:13:22;;;;;;;6.03;3.85;;;;;;;;;;5050271;28;20086;-55
2021/12/13 02:18:45;;;;;;;6.13;4.00;;;;;;;;;;5060209;28;20094;-54
2021/12/13 02:21:23;;;;;;;9.10;3.70;;;;;;;;;;5063568;28;20416;-52
2021/12/13 02:23:51;;;;;;;5.03;3.58;;;;;;;;;;5060778;28;20048;-50
2021/12/13 02:26:18;;;;;;;5.65;4.05;;;;;;;;;;5065463;28;20528;-49
2021/12/13 02:28:53;;;;;;;4.93;3.65;;;;;;;;;;5057476;28;20037;-54
2021/12/13 02:31:23;;;;;;;6.93;3.95;;;;;;;;;;5056918;28;20041;-54
2021/12/13 02:33:55;;;;;;;5.38;3.80;;;;;;;;;;5062241;28;20032;-54
2021/12/13 02:36:30;;;;;;;8.80;4.65;;;;;;;;;;5054461;28;20037;-52
2021/12/13 02:38:59;;;;;;;10.18;5.20;;;;;;;;;;5057797;28;20039;-53
2021/12/13 02:41:28;;;;;;;8.45;5.53;;;;;;;;;;5059929;28;20124;-54
2021/12/13 02:44:02;;;;;;;10.10;5.53;;;;;;;;;;5088130;28;20146;-55
2021/12/13 02:46:28;;;;;;;10.75;5.53;;;;;;;;;;5078455;28;20036;-54
2021/12/13 02:48:58;;;;;;;7.35;4.75;;;;;;;;;;5101659;28;20028;-52
2021/12/13 02:51:37;;;;;;;8.85;5.68;;;;;;;;;;5097144;28;20032;-53
2021/12/13 02:54:18;;;;;;;10.02;6.35;;;;;;;;;;5096709;28;20028;-53
2021/12/13 02:56:54;;;;;;;10.40;5.45;;;;;;;;;;5098568;28;20035;-55
2021/12/13 02:59:22;;;;;;;8.45;5.40;;;;;;;;;;5098253;28;20040;-54
2021/12/13 03:02:00;;;;;;;11.70;5.00;;;;;;;;;;5098694;28;20042;-55
2021/12/13 03:04:28;;;;;;;7.63;4.85;;;;;;;;;;5080140;28;20032;-53
2021/12/13 03:07:20;;;;;;;6.00;4.53;;;;;;;;;;5101693;28;20383;-53
2021/12/13 03:09:49;;;;;;;5.20;4.70;;;;;;;;;;5094673;28;20577;-53
2021/12/13 03:12:17;;;;;;;7.78;4.97;;;;;;;;;;5099706;28;20032;-50
2021/12/13 03:14:49;;;;;;;5.45;4.20;;;;;;;;;;5094692;28;20110;-51
2021/12/13 03:17:21;;;;;;;5.13;3.80;;;;;;;;;;5097052;28;20050;-48
2021/12/13 03:19:47;;;;;;;5.15;4.03;;;;;;;;;;5098263;28;20481;-47
2021/12/13 03:22:47;;;;;;;6.00;4.30;;;;;;;;;;5091446;28;20066;-50
2021/12/13 03:25:33;;;;;;;8.88;5.05;;;;;;;;;;5099917;28;20689;-47
2021/12/13 03:28:11;;;;;;;5.97;4.03;;;;;;;;;;5091350;28;20044;-47
2021/12/13 03:30:58;;;;;;;4.15;3.75;;;;;;;;;;5103764;28;20097;-50
2021/12/13 03:33:35;;;;;;;4.57;3.55;;;;;;;;;;5095587;28;20035;-51
2021/12/13 03:36:08;;;;;;;5.82;4.25;;;;;;;;;;5093460;28;20028;-48
2021/12/13 03:38:43;;;;;;;5.85;4.40;;;;;;;;;;5094043;28;20032;-52
2021/12/13 03:41:14;;;;;;;7.20;4.70;;;;;;;;;;5094923;28;20033;-48
2021/12/13 03:43:44;;;;;;;6.55;4.78;;;;;;;;;;5106977;28;20038;-48
2021/12/13 03:46:12;;;;;;;7.03;4.72;;;;;;;;;;5095801;28;20043;-48
2021/12/13 03:48:40;;;;;;;5.80;4.15;;;;;;;;;;5095596;28;20024;-50
2021/12/13 03:51:13;;;;;;;6.65;4.93;;;;;;;;;;5092799;28;20028;-50
2021/12/13 03:53:42;;;;;;;5.95;4.72;;;;;;;;;;5100984;28;20051;-52
2021/12/13 03:56:12;;;;;;;5.57;4.43;;;;;;;;;;5081228;28;20469;-49
2021/12/13 03:58:42;;;;;;;9.35;5.38;;;;;;;;;;5100675;28;20027;-51
2021/12/13 04:01:21;;;;;;;11.50;4.80;;;;;;;;;;5108942;28;20036;-50
2021/12/13 04:03:51;;;;;;;6.70;4.80;;;;;;;;;;5094311;28;20514;-49
2021/12/13 04:06:18;;;;;;;5.80;4.40;;;;;;;;;;5098832;28;20031;-48
2021/12/13 04:08:50;;;;;;;6.55;4.68;;;;;;;;;;5098354;28;20068;-49
2021/12/13 04:11:16;;;;;;;6.47;4.47;;;;;;;;;;5099290;28;20032;-51
2021/12/13 04:13:52;;;;;;;4.70;4.15;;;;;;;;;;5095266;28;20043;-48
2021/12/13 04:17:01;;;;;;;6.07;4.60;;;;;;;;;;5098180;28;20069;-50
2021/12/13 04:19:36;;;;;;;6.10;4.45;;;;;;;;;;5099450;28;20024;-53
2021/12/13 04:22:04;;;;;;;6.07;4.20;;;;;;;;;;5100449;27;20070;-53
2021/12/13 04:24:37;;;;;;;4.32;3.92;;;;;;;;;;5096049;27;20108;-49
2021/12/13 04:27:19;;;;;;;7.53;4.70;;;;;;;;;;5102630;27;20023;-51
2021/12/13 04:29:47;;;;;;;7.57;4.97;;;;;;;;;;5103598;27;20423;-51
2021/12/13 04:32:29;;;;;;;4.35;3.85;;;;;;;;;;5096889;27;20476;-53
2021/12/13 04:34:58;;;;;;;5.88;4.13;;;;;;;;;;5108795;27;20123;-55
2021/12/13 04:37:31;;;;;;;8.40;4.35;;;;;;;;;;5098081;28;20470;-53
2021/12/13 04:40:00;;;;;;;6.40;4.32;;;;;;;;;;5100898;28;20114;-53
2021/12/13 04:42:29;;;;;;;4.82;3.80;;;;;;;;;;5102884;28;20028;-47
2021/12/13 04:45:00;;;;;;;7.38;4.45;;;;;;;;;;5087529;28;20090;-53
2021/12/13 04:47:34;;;;;;;5.05;4.07;;;;;;;;;;5095588;28;20032;-51
2021/12/13 04:50:15;;;;;;;5.45;3.65;;;;;;;;;;5106654;27;20036;-51
2021/12/13 04:52:41;;;;;;;8.35;4.30;;;;;;;;;;5104617;28;20045;-51
2021/12/13 04:55:16;;;;;;;5.88;3.95;;;;;;;;;;5091944;28;20028;-51
2021/12/13 04:57:42;;;;;;;3.58;3.25;;;;;;;;;;5097627;28;20044;-51
2021/12/13 05:00:14;;;;;;;5.10;3.83;;;;;;;;;;5084501;27;20485;-51
2021/12/13 05:02:52;;;;;;;5.55;3.72;;;;;;;;;;5088312;28;20031;-53
2021/12/13 05:05:19;;;;;;;5.22;3.78;;;;;;;;;;5102814;28;20100;-47
2021/12/13 05:07:47;;;;;;;5.28;4.03;;;;;;;;;;5101046;28;20028;-51
2021/12/13 05:10:14;;;;;;;8.52;4.00;;;;;;;;;;5079529;28;20020;-53
2021/12/13 05:12:41;;;;;;;6.60;3.95;;;;;;;;;;5092085;28;20354;-48
2021/12/13 05:15:11;;;;;;;5.65;3.67;;;;;;;;;;5100660;28;20028;-53
2021/12/13 05:17:45;;;;;;;4.10;3.42;;;;;;;;;;5081864;28;20028;-50
2021/12/13 05:20:17;;;;;;;4.78;3.83;;;;;;;;;;5077939;27;20407;-54
2021/12/13 05:22:47;;;;;;;3.95;3.42;;;;;;;;;;5101582;28;20089;-53
2021/12/13 05:25:29;;;;;;;5.47;3.65;;;;;;;;;;5078797;27;20039;-49
2021/12/13 05:28:20;;;;;;;4.60;3.30;;;;;;;;;;5097123;27;20035;-49
2021/12/13 05:30:57;;;;;;;7.07;3.97;;;;;;;;;;5098390;27;20031;-48
2021/12/13 05:33:26;;;;;;;3.97;3.50;;;;;;;;;;5099586;27;20040;-52
2021/12/13 05:35:56;;;;;;;5.65;3.97;;;;;;;;;;5098349;27;20395;-48
2021/12/13 05:38:31;;;;;;;4.30;3.60;;;;;;;;;;5081021;28;20085;-50
2021/12/13 05:41:00;;;;;;;4.03;3.58;;;;;;;;;;5107947;27;20035;-49
2021/12/13 05:43:45;;;;;;;4.57;3.28;;;;;;;;;;5095223;28;20039;-50
2021/12/13 05:46:19;;;;;;;5.68;3.42;;;;;;;;;;5097806;27;20055;-51
2021/12/13 05:48:49;;;;;;;4.38;3.42;;;;;;;;;;5087705;28;20532;-50
2021/12/13 05:51:25;;;;;;;4.00;3.60;;;;;;;;;;5100510;28;20082;-48
2021/12/13 05:53:56;;;;;;;4.82;3.25;;;;;;;;;;5099363;28;20487;-50
2021/12/13 05:56:26;;;;;;;4.50;3.72;;;;;;;;;;5083769;28;20034;-47
2021/12/13 05:59:07;;;;;;;4.88;3.20;;;;;;;;;;5109101;27;20487;-54
2021/12/13 06:02:05;;;;;;;4.32;3.50;;;;;;;;;;5099100;28;20490;-47
2021/12/13 06:04:39;;;;;;;4.53;3.20;;;;;;;;;;5045804;28;20051;-50
2021/12/13 06:07:33;;;;;;;5.00;3.58;;;;;;;;;;5042885;28;20025;-52
2021/12/13 06:10:00;;;;;;;4.20;2.97;;;;;;;;;;5041048;28;20124;-48
2021/12/13 06:12:46;;;;;;;4.10;2.90;;;;;;;;;;5037510;28;20037;-52
2021/12/13 06:15:17;;;;;;;3.60;2.78;;;;;;;;;;5041447;28;20440;-50
2021/12/13 06:18:04;;;;;;;4.57;2.85;;;;;;;;;;5045155;28;20025;-52
2021/12/13 06:20:30;;;;;;;4.75;3.33;;;;;;;;;;5042933;28;20034;-51
2021/12/13 06:23:27;;;;;;;4.43;3.25;;;;;;;;;;5045805;28;20086;-49
2021/12/13 06:25:59;;;;;;;3.53;3.03;;;;;;;;;;5026630;28;20159;-49
2021/12/13 06:28:33;;;;;;;3.67;2.75;;;;;;;;;;5023890;28;20049;-48
2021/12/13 06:31:07;;;;;;;3.13;2.80;;;;;;;;;;5021888;28;21146;-52
2021/12/13 06:33:53;;;;;;;4.25;3.33;;;;;;;;;;5025884;28;20037;-51
2021/12/13 06:36:31;;;;;;;5.85;3.35;;;;;;;;;;5022838;28;20033;-53
2021/12/13 06:39:09;;;;;;;5.30;2.90;;;;;;;;;;5022999;28;20141;-50
2021/12/13 06:41:38;;;;;;;4.80;3.05;;;;;;;;;;5062753;28;20044;-53
2021/12/13 06:44:05;;;;;;;4.85;3.55;;;;;;;;;;5077935;28;20040;-49
2021/12/13 06:46:59;;;;;;;5.45;3.38;;;;;;;;;;5077902;28;20024;-52
2021/12/13 06:49:38;;;;;;;4.88;3.38;;;;;;;;;;5070825;28;20036;-52
2021/12/13 06:52:04;;;;;;;6.30;4.10;;;;;;;;;;5077630;28;20063;-50
2021/12/13 06:54:38;;;;;;;5.93;4.47;;;;;;;;;;5076909;28;20051;-52
2021/12/13 06:57:21;;;;;;;5.32;4.00;;;;;;;;;;5077350;28;20031;-49
2021/12/13 06:59:51;;;;;;;5.72;3.83;;;;;;;;;;5077465;28;20028;-47
2021/12/13 07:02:43;;;;;;;3.63;3.30;;;;;;;;;;5083722;28;20021;-48
2021/12/13 07:05:18;;;;;;;7.95;3.65;;;;;;;;;;5082205;28;20032;-48
2021/12/13 07:08:10;;;;;;;5.22;3.80;;;;;;;;;;5069678;28;20045;-48
2021/12/13 07:10:41;;;;;;;5.43;4.00;;;;;;;;;;5074211;28;20370;-54
2021/12/13 07:13:21;;;;;;;4.97;3.50;;;;;;;;;;5088386;28;20031;-49
2021/12/13 07:16:02;;;;;;;14.15;3.50;;;;;;;;;;5076645;28;20081;-53
2021/12/13 07:18:40;;;;;;;5.75;3.95;;;;;;;;;;5076043;28;20714;-50
2021/12/13 07:21:17;;;;;;;3.55;3.05;;;;;;;;;;5077416;28;20141;-54
2021/12/13 07:24:02;;;;;;;8.63;3.33;;;;;;;;;;5075940;28;20135;-52
2021/12/13 07:26:32;;;;;;;3.90;2.92;;;;;;;;;;5096861;28;20089;-55
2021/12/13 07:28:59;;;;;;;5.95;3.50;;;;;;;;;;5095924;28;20511;-47
2021/12/13 07:31:26;;;;;;;4.57;2.97;;;;;;;;;;5076874;28;20031;-50
2021/12/13 07:33:51;;;;;;;5.35;3.25;;;;;;;;;;5098047;28;20097;-53
2021/12/13 07:36:28;;;;;;;9.48;3.55;;;;;;;;;;5104898;28;20028;-49
2021/12/13 07:39:01;;;;;;;3.80;3.35;;;;;;;;;;5098846;28;20036;-52
2021/12/13 07:41:38;;;;;;;8.55;2.75;;;;;;;;;;5096007;28;20036;-51
2021/12/13 07:44:04;;;;;;;7.15;3.22;;;;;;;;;;5097510;28;20032;-53
2021/12/13 07:46:32;;;;;;;3.58;3.22;;;;;;;;;;5106371;28;20096;-51
2021/12/13 07:49:07;;;;;;;4.13;3.05;;;;;;;;;;5101796;28;20032;-50
2021/12/13 07:51:37;;;;;;;4.38;3.25;;;;;;;;;;5091637;28;20024;-52
2021/12/13 07:54:07;;;;;;;4.40;3.30;;;;;;;;;;5102207;27;20035;-52
2021/12/13 07:56:36;;;;;;;6.95;3.80;;;;;;;;;;5099011;27;20023;-51
2021/12/13 07:59:26;;;;;;;5.68;3.92;;;;;;;;;;5104708;27;20801;-48
2021/12/13 08:02:05;;;;;;;6.65;4.10;;;;;;;;;;5102574;27;20392;-52
2021/12/13 08:04:36;;;;;;;5.10;3.30;;;;;;;;;;5102793;27;20040;-52
2021/12/13 08:07:23;;;;;;;5.07;3.45;;;;;;;;;;5101039;27;20058;-53
2021/12/13 08:09:52;;;;;;;6.65;3.17;;;;;;;;;;5104663;27;20032;-53
2021/12/13 08:12:20;;;;;;;7.20;2.78;;;;;;;;;;5094813;28;20052;-53
2021/12/13 08:14:48;;;;;;;7.40;3.13;;;;;;;;;;5096236;28;20115;-54
2021/12/13 08:17:21;;;;;;;4.15;2.97;;;;;;;;;;5101061;27;20042;-52
2021/12/13 08:19:56;;;;;;;;;;;;;;;;;;5103056;27;20042;-52
2021/12/13 08:22:28;;;;;;;3.20;2.90;;;;;;;;;;5109882;27;19916;-54
2021/12/13 08:24:57;;;;;;;4.55;3.17;;;;;;;;;;5101193;28;20052;-55
2021/12/13 08:27:28;;;;;;;3.60;2.65;;;;;;;;;;5086049;27;20061;-53
2021/12/13 08:30:09;;;;;;;4.50;3.20;;;;;;;;;;5096697;28;20028;-54
2021/12/13 08:32:36;;;;;;;3.25;2.95;;;;;;;;;;5103705;27;20036;-47
2021/12/13 08:35:05;;;;;;;3.60;2.72;;;;;;;;;;5097373;28;20043;-51
2021/12/13 08:37:35;;;;;;;3.75;3.10;;;;;;;;;;5102919;27;20031;-53
2021/12/13 08:40:07;;;;;;;3.33;2.70;;;;;;;;;;5100148;28;20472;-54
2021/12/13 08:42:37;;;;;;;6.50;3.05;;;;;;;;;;5094324;28;20036;-51
2021/12/13 08:45:22;;;;;;;5.93;3.80;;;;;;;;;;5096714;27;20574;-50
2021/12/13 08:47:53;;;;;;;25.90;8.63;;;;;;;;;;5102823;28;20067;-54
2021/12/13 08:50:40;;;;;;;19.00;9.50;;;;;;;;;;5094474;28;20032;-55
2021/12/13 08:53:11;;;;;;;14.10;8.60;;;;;;;;;;5100842;27;20725;-53
2021/12/13 08:55:51;;;;;;;14.88;8.60;;;;;;;;;;5098345;28;20036;-52
2021/12/13 08:58:19;;;;;;;25.55;8.68;;;;;;;;;;5103606;27;20024;-55
2021/12/13 09:00:59;;;;;;;17.38;8.98;;;;;;;;;;5099996;28;20042;-53
2021/12/13 09:03:36;;;;;;;14.32;8.73;;;;;;;;;;5105762;27;20039;-55
2021/12/13 09:06:22;;;;;;;21.65;8.88;;;;;;;;;;5100883;28;20377;-54
2021/12/13 09:08:54;;;;;;;16.73;7.93;;;;;;;;;;5097931;28;20093;-52
2021/12/13 09:11:33;;;;;;;13.93;8.13;;;;;;;;;;5097034;28;20529;-53
2021/12/13 09:14:07;;;;;;;14.93;8.77;;;;;;;;;;5102152;28;20063;-52
2021/12/13 09:16:45;;;;;;;13.63;8.80;;;;;;;;;;5103576;28;20031;-55
2021/12/13 09:19:33;;;;;;;26.42;11.30;;;;;;;;;;5097371;27;20055;-55
2021/12/13 09:22:24;;;;;;;33.97;12.25;;;;;;;;;;5100924;28;20031;-55
2021/12/13 09:24:55;;;;;;;20.02;11.70;;;;;;;;;;5101757;27;20408;-55
2021/12/13 09:27:57;;;;;;;22.55;12.52;;;;;;;;;;5101479;27;20032;-55
2021/12/13 09:30:35;;;;;;;22.95;11.95;;;;;;;;;;5106239;27;20046;-55
2021/12/13 09:33:03;;;;;;;39.22;12.48;;;;;;;;;;5099988;27;20028;-52
2021/12/13 09:35:38;;;;;;;31.10;12.23;;;;;;;;;;5100036;28;20177;-51
2021/12/13 09:38:27;;;;;;;20.00;10.82;;;;;;;;;;5098833;27;20024;-55
2021/12/13 09:41:03;;;;;;;32.63;10.98;;;;;;;;;;5097342;28;20038;-53
2021/12/13 09:43:37;;;;;;;31.40;10.52;;;;;;;;;;5096588;28;20080;-54
2021/12/13 09:46:04;;;;;;;27.95;10.15;;;;;;;;;;5103980;28;20054;-55
2021/12/13 09:48:35;;;;;;;18.33;9.65;;;;;;;;;;5100433;27;20057;-50
2021/12/13 09:51:15;;;;;;;21.90;11.35;;;;;;;;;;5103184;28;20024;-52
2021/12/13 09:53:42;;;;;;;29.33;11.02;;;;;;;;;;5104184;27;20036;-54
2021/12/13 09:56:13;;;;;;;19.52;10.68;;;;;;;;;;5102670;28;20042;-52
2021/12/13 09:58:59;;;;;;;23.70;11.43;;;;;;;;;;5093746;28;20042;-54
2021/12/13 10:01:27;;;;;;;34.42;15.88;;;;;;;;;;5100820;28;20461;-55
2021/12/13 10:03:55;;;;;;;33.92;14.75;;;;;;;;;;5098307;27;20379;-52
2021/12/13 10:06:35;;;;;;;24.55;13.15;;;;;;;;;;5100108;28;20034;-51
2021/12/13 10:09:03;;;;;;;21.98;12.35;;;;;;;;;;5097124;28;20069;-49
2021/12/13 10:11:56;;;;;;;26.65;12.90;;;;;;;;;;5102837;28;20032;-49
2021/12/13 10:14:29;;;;;;;27.60;12.55;;;;;;;;;;5092825;28;20027;-49
2021/12/13 10:16:55;;;;;;;33.85;14.18;;;;;;;;;;5099094;28;20754;-50
2021/12/13 10:19:33;;;;;;;25.85;12.98;;;;;;;;;;5096636;27;20035;-54
2021/12/13 10:21:59;;;;;;;27.83;13.93;;;;;;;;;;5095096;27;20045;-53
2021/12/13 10:24:29;;;;;;;21.90;12.75;;;;;;;;;;5096772;28;20046;-53
2021/12/13 10:26:58;;;;;;;25.35;13.52;;;;;;;;;;5092718;28;20027;-48
2021/12/13 10:29:26;;;;;;;23.20;15.18;;;;;;;;;;5093492;28;20547;-52
2021/12/13 10:32:00;;;;;;;23.58;15.43;;;;;;;;;;5093340;28;20061;-50
2021/12/13 10:34:33;;;;;;;28.70;14.80;;;;;;;;;;5102096;27;20111;-52
2021/12/13 10:37:06;;;;;;;21.70;14.68;;;;;;;;;;5096745;28;20032;-52
2021/12/13 10:39:36;;;;;;;31.23;14.75;;;;;;;;;;5097291;28;20084;-50
2021/12/13 10:42:08;;;;;;;27.83;14.18;;;;;;;;;;5100644;28;20031;-54
2021/12/13 10:44:35;;;;;;;38.45;15.43;;;;;;;;;;5098336;28;20432;-48
2021/12/13 10:47:10;;;;;;;26.42;13.85;;;;;;;;;;5102020;27;20059;-49
2021/12/13 10:49:40;;;;;;;34.55;16.63;;;;;;;;;;5097804;28;20028;-53
2021/12/13 10:52:19;;;;;;;39.75;16.25;;;;;;;;;;5097575;27;20385;-52
2021/12/13 10:54:53;;;;;;;30.63;14.27;;;;;;;;;;5093230;28;20042;-48
2021/12/13 10:57:29;;;;;;;29.75;15.20;;;;;;;;;;5099914;27;20365;-51
2021/12/13 10:59:57;;;;;;;30.00;13.73;;;;;;;;;;5099541;28;20110;-47
2021/12/13 11:02:29;;;;;;;26.20;15.00;;;;;;;;;;5101577;28;20039;-53
2021/12/13 11:05:15;;;;;;;25.67;16.58;;;;;;;;;;5093683;28;20036;-54
2021/12/13 11:07:41;;;;;;;32.30;15.50;;;;;;;;;;5099322;28;20066;-47
2021/12/13 11:10:13;;;;;;;35.50;18.17;;;;;;;;;;5094516;28;20052;-55
2021/12/13 11:12:46;;;;;;;34.17;18.48;;;;;;;;;;5100111;28;20029;-52
2021/12/13 11:15:23;;;;;;;31.92;17.48;;;;;;;;;;5097506;28;20404;-50
2021/12/13 11:17:48;;;;;;;28.95;15.15;;;;;;;;;;5099633;28;20084;-50
2021/12/13 11:20:23;;;;;;;34.30;16.20;;;;;;;;;;5100997;28;20491;-50
2021/12/13 11:22:51;;;;;;;25.25;14.82;;;;;;;;;;5098584;28;20035;-52
2021/12/13 11:25:22;;;;;;;22.85;15.13;;;;;;;;;;5093866;28;20071;-52
2021/12/13 11:27:48;;;;;;;25.60;15.05;;;;;;;;;;5099218;27;20035;-49
2021/12/13 11:30:20;;;;;;;25.52;16.00;;;;;;;;;;5102550;28;20414;-53
2021/12/13 11:32:58;;;;;;;;;;;;;;;;;;5100329;27;20028;-47
2021/12/13 11:35:51;;;;;;;32.53;16.52;;;;;;;;;;5100014;28;19916;-49
2021/12/13 11:38:46;;;;;;;21.00;15.13;;;;;;;;;;5104259;28;20031;-55
2021/12/13 11:41:32;;;;;;;30.02;16.08;;;;;;;;;;5100548;28;20039;-51
2021/12/13 11:44:26;;;;;;;32.00;17.23;;;;;;;;;;5038635;28;20103;-49
2021/12/13 11:47:10;;;;;;;21.70;15.52;;;;;;;;;;5043163;28;20047;-50
2021/12/13 11:49:48;;;;;;;35.95;16.52;;;;;;;;;;5039832;28;20091;-47
2021/12/13 11:52:58;;;;;;;25.02;15.68;;;;;;;;;;5036149;28;20397;-49
2021/12/13 11:56:05;;;;;;;31.15;17.75;;;;;;;;;;5036255;28;20048;-47
2021/12/13 11:59:06;;;;;;;27.98;16.33;;;;;;;;;;5040875;28;20513;-47
2021/12/13 12:02:03;;;;;;;19.75;13.75;;;;;;;;;;5044262;28;20071;-50
2021/12/13 12:05:04;;;;;;;24.65;12.57;;;;;;;;;;5022482;28;20055;-50
2021/12/13 12:07:52;;;;;;;21.75;13.50;;;;;;;;;;5039504;28;20041;-51
2021/12/13 12:10:50;;;;;;;19.17;12.30;;;;;;;;;;5031461;28;20216;-47
2021/12/13 12:13:26;;;;;;;26.25;14.27;;;;;;;;;;5031927;28;20040;-48
2021/12/13 12:15:55;;;;;;;22.35;13.93;;;;;;;;;;5035199;28;20029;-49
2021/12/13 12:18:21;;;;;;;25.67;13.02;;;;;;;;;;5033929;28;20028;-53
2021/12/13 12:21:25;;;;;;;17.52;13.27;;;;;;;;;;5057072;27;20136;-48
2021/12/13 12:23:51;;;;;;;15.75;12.38;;;;;;;;;;5096049;27;20036;-49
2021/12/13 12:26:17;;;;;;;21.90;13.05;;;;;;;;;;5099042;27;20027;-48
2021/12/13 12:28:43;;;;;;;17.45;11.80;;;;;;;;;;5105650;27;20027;-53
2021/12/13 12:31:11;;;;;;;19.33;12.45;;;;;;;;;;5102326;27;20028;-51
2021/12/13 12:33:39;;;;;;;19.00;11.45;;;;;;;;;;5100619;28;20380;-47
2021/12/13 12:36:16;;;;;;;19.23;12.05;;;;;;;;;;5104034;27;20056;-46
2021/12/13 12:39:00;;;;;;;17.85;11.10;;;;;;;;;;5102600;27;20070;-52
2021/12/13 12:41:40;;;;;;;20.65;13.48;;;;;;;;;;5096036;27;20032;-50
2021/12/13 12:44:07;;;;;;;17.48;11.77;;;;;;;;;;5098650;28;20032;-51
2021/12/13 12:46:40;;;;;;;20.33;10.90;;;;;;;;;;5096990;27;20036;-48
2021/12/13 12:49:14;;;;;;;16.10;11.25;;;;;;;;;;5102727;27;20028;-48
2021/12/13 12:51:41;;;;;;;16.33;10.98;;;;;;;;;;5099933;27;20039;-49
2021/12/13 12:54:14;;;;;;;25.58;13.82;;;;;;;;;;5097729;28;20460;-49
2021/12/13 12:56:45;;;;;;;;;;;;;;;;;;5102934;28;20063;-49
2021/12/13 12:59:13;;;;;;;21.35;11.10;;;;;;;;;;5096391;28;19919;-47
2021/12/13 13:01:59;;;;;;;15.40;10.23;;;;;;;;;;5106212;28;20031;-53
2021/12/13 13:04:32;;;;;;;15.32;10.43;;;;;;;;;;5095794;28;20472;-55
2021/12/13 13:07:08;;;;;;;21.80;10.55;;;;;;;;;;5099074;28;20028;-51
2021/12/13 13:09:40;;;;;;;24.77;11.05;;;;;;;;;;5100515;28;20024;-50
2021/12/13 13:12:12;;;;;;;18.43;10.97;;;;;;;;;;5097703;28;20533;-54
2021/12/13 13:14:48;;;;;;;16.90;10.18;;;;;;;;;;5094505;28;20050;-49
2021/12/13 13:17:15;;;;;;;27.23;11.80;;;;;;;;;;5087793;28;20032;-52
2021/12/13 13:19:44;;;;;;;21.48;11.32;;;;;;;;;;5093724;28;20073;-48
2021/12/13 13:22:16;;;;;;;23.05;11.32;;;;;;;;;;5076785;28;20028;-51
2021/12/13 13:24:46;;;;;;;19.85;11.65;;;;;;;;;;5094510;28;20044;-52
2021/12/13 13:27:13;;;;;;;16.90;11.60;;;;;;;;;;5100123;27;20076;-50
2021/12/13 13:29:39;;;;;;;16.13;10.15;;;;;;;;;;5098293;28;20028;-55
2021/12/13 13:32:10;;;;;;;21.70;10.82;;;;;;;;;;5100516;27;20354;-55
2021/12/13 13:34:43;;;;;;;20.17;10.65;;;;;;;;;;5100782;28;20069;-54
2021/12/13 13:37:19;;;;;;;23.05;11.25;;;;;;;;;;5095495;28;20032;-54
2021/12/13 13:39:51;;;;;;;23.20;11.18;;;;;;;;;;5100223;28;20055;-54
2021/12/13 13:42:20;;;;;;;28.80;15.63;;;;;;;;;;5102930;27;20031;-54
2021/12/13 13:44:52;;;;;;;21.45;15.73;;;;;;;;;;5092292;28;20031;-48
2021/12/13 13:47:36;;;;;;;34.63;16.85;;;;;;;;;;5099987;27;20031;-50
2021/12/13 13:50:37;;;;;;;26.27;14.98;;;;;;;;;;5098604;28;20143;-51
2021/12/13 13:53:26;;;;;;;20.95;12.75;;;;;;;;;;5026026;28;20403;-54
2021/12/13 13:56:04;;;;;;;14.68;9.95;;;;;;;;;;5026091;28;20045;-49
2021/12/13 13:58:39;;;;;;;15.20;10.13;;;;;;;;;;5027078;28;20033;-53
2021/12/13 14:01:08;;;;;;;20.00;9.98;;;;;;;;;;5022926;28;20033;-52
2021/12/13 14:03:45;;;;;;;15.77;9.40;;;;;;;;;;5025839;28;20052;-52
2021/12/13 14:06:15;;;;;;;14.23;9.88;;;;;;;;;;5024780;28;20057;-54
2021/12/13 14:08:51;;;;;;;16.38;9.70;;;;;;;;;;5026898;28;20084;-53
2021/12/13 14:11:19;;;;;;;15.95;9.75;;;;;;;;;;5027708;28;20032;-53
2021/12/13 14:13:46;;;;;;;13.65;9.90;;;;;;;;;;5025948;28;20029;-51
2021/12/13 14:16:14;;;;;;;21.92;11.63;;;;;;;;;;5026617;28;20049;-52
2021/12/13 14:18:40;;;;;;;25.77;14.63;;;;;;;;;;5026282;28;20033;-54
2021/12/13 14:21:13;;;;;;;19.55;12.27;;;;;;;;;;5025699;28;20029;-54
2021/12/13 14:23:43;;;;;;;21.85;13.20;;;;;;;;;;5025234;28;20470;-50
2021/12/13 14:26:13;;;;;;;25.33;13.10;;;;;;;;;;5027361;28;20480;-55
2021/12/13 14:28:50;;;;;;;30.55;13.15;;;;;;;;;;5062784;28;20544;-52
2021/12/13 14:31:27;;;;;;;21.58;13.07;;;;;;;;;;5096598;28;20169;-54
2021/12/13 14:34:05;;;;;;;20.02;11.68;;;;;;;;;;5093970;28;20373;-54
2021/12/13 14:36:35;;;;;;;25.25;12.32;;;;;;;;;;5100528;28;20027;-55
2021/12/13 14:39:09;;;;;;;34.17;13.05;;;;;;;;;;5103201;27;20026;-54
2021/12/13 14:41:42;;;;;;;20.65;12.38;;;;;;;;;;5099391;27;20032;-52
2021/12/13 14:44:11;;;;;;;31.85;11.77;;;;;;;;;;5084083;28;20105;-55
2021/12/13 14:46:47;;;;;;;24.30;11.88;;;;;;;;;;5100945;27;20418;-53
2021/12/13 14:49:15;;;;;;;19.48;10.77;;;;;;;;;;5099730;28;20032;-56
2021/12/13 14:51:47;;;;;;;24.95;11.38;;;;;;;;;;5091633;28;20476;-53
2021/12/13 14:54:20;;;;;;;20.23;10.63;;;;;;;;;;5109450;27;20046;-50
2021/12/13 14:56:54;;;;;;;17.65;9.10;;;;;;;;;;5098502;27;20083;-53
2021/12/13 14:59:20;;;;;;;12.27;8.85;;;;;;;;;;5089164;28;20110;-54
2021/12/13 15:01:47;;;;;;;17.65;10.27;;;;;;;;;;5100292;27;20123;-56
2021/12/13 15:04:22;;;;;;;26.15;11.77;;;;;;;;;;5093004;28;20365;-50
2021/12/13 15:06:55;;;;;;;26.00;12.35;;;;;;;;;;5094487;28;20032;-54
2021/12/13 15:09:31;;;;;;;23.23;14.32;;;;;;;;;;5078743;28;20358;-52
2021/12/13 15:12:03;;;;;;;28.10;16.60;;;;;;;;;;5100636;27;20042;-49
2021/12/13 15:14:40;;;;;;;32.95;17.90;;;;;;;;;;5095362;28;20100;-51
2021/12/13 15:17:17;;;;;;;34.17;18.55;;;;;;;;;;5092863;28;20036;-53
2021/12/13 15:19:49;;;;;;;40.70;20.20;;;;;;;;;;5096760;28;20054;-51
2021/12/13 15:22:15;;;;;;;52.97;30.25;;;;;;;;;;5096442;28;20081;-49
2021/12/13 15:24:41;;;;;;;50.13;31.17;;;;;;;;;;5077561;28;20048;-49